Time;durP1;ratioP1;P1;durP2;ratioP2;P2;SDS_P1;SDS_P2;PMS_P1;PMS_P2;Temp;Humidity;BMP_temperature;BMP_pressure;BME280_temperature;BME280_humidity;BME280_pressure;Samples;Min_cycle;Max_cycle;Signal;HPM_P1;HPM_P2
2021/07/02 00:01:20;;;;;;;5.30;3.70;;;;;;;19.40;61.17;99619.13;4871870;29;20060;-74
2021/07/02 00:03:47;;;;;;;3.88;3.20;;;;;;;19.34;61.25;99617.16;4873230;29;20049;-70
2021/07/02 00:06:14;;;;;;;5.22;4.28;;;;;;;19.29;61.46;99615.06;4873131;29;20068;-73
2021/07/02 00:08:41;;;;;;;7.30;4.00;;;;;;;19.23;61.57;99611.28;4871819;29;20544;-72
2021/07/02 00:11:08;;;;;;;6.75;4.28;;;;;;;19.15;61.83;99614.03;4872073;29;20128;-72
2021/07/02 00:13:35;;;;;;;6.68;3.95;;;;;;;19.10;62.02;99611.06;4872550;29;20065;-70
2021/07/02 00:16:02;;;;;;;5.25;4.03;;;;;;;19.04;62.06;99620.66;4870616;29;20156;-70
2021/07/02 00:18:30;;;;;;;3.58;3.15;;;;;;;18.98;62.17;99625.88;4871068;29;20053;-72
2021/07/02 00:20:57;;;;;;;4.88;3.45;;;;;;;18.94;62.35;99613.88;4870208;29;20049;-71
2021/07/02 00:23:23;;;;;;;4.25;3.30;;;;;;;18.87;62.47;99613.78;4869849;29;20060;-70
2021/07/02 00:25:50;;;;;;;4.28;3.47;;;;;;;18.83;62.83;99610.63;4872111;29;20067;-69
2021/07/02 00:28:17;;;;;;;4.03;2.88;;;;;;;18.79;62.88;99619.19;4872193;29;20049;-71
2021/07/02 00:30:44;;;;;;;6.82;3.38;;;;;;;18.73;62.96;99623.41;4870983;29;20533;-70
2021/07/02 00:33:11;;;;;;;4.32;3.38;;;;;;;18.68;63.43;99623.13;4871782;29;20533;-69
2021/07/02 00:35:40;;;;;;;3.88;3.15;;;;;;;18.62;63.46;99618.47;4869426;29;20133;-70
2021/07/02 00:38:07;;;;;;;5.95;3.00;;;;;;;18.57;63.82;99619.00;4869639;29;20049;-71
2021/07/02 00:40:34;;;;;;;3.40;2.60;;;;;;;18.52;63.91;99616.03;4870469;29;20129;-69
2021/07/02 00:43:01;;;;;;;4.95;3.38;;;;;;;18.46;64.06;99633.63;4869962;29;20045;-69
2021/07/02 00:45:28;;;;;;;4.05;2.90;;;;;;;18.43;64.32;99627.81;4869028;29;20068;-69
2021/07/02 00:47:55;;;;;;;4.50;4.03;;;;;;;18.39;64.52;99627.34;4870660;29;20049;-69
2021/07/02 00:50:22;;;;;;;3.72;2.97;;;;;;;18.38;64.52;99625.66;4870183;29;20053;-69
2021/07/02 00:52:52;;;;;;;5.50;3.28;;;;;;;18.39;64.30;99635.34;4871096;29;20055;-69
2021/07/02 00:55:18;;;;;;;4.68;2.85;;;;;;;18.42;64.09;99643.03;4875455;29;20428;-71
2021/07/02 00:57:46;;;;;;;3.33;2.67;;;;;;;18.38;64.25;99640.88;4873197;29;20501;-69
2021/07/02 01:00:13;;;;;;;7.18;4.32;;;;;;;18.37;64.33;99636.56;4872894;29;20630;-70
2021/07/02 01:02:41;;;;;;;4.72;3.22;;;;;;;18.34;64.33;99638.53;4874715;29;20418;-69
2021/07/02 01:05:10;;;;;;;6.38;3.25;;;;;;;18.32;64.65;99637.06;4873909;29;20053;-69
2021/07/02 01:07:37;;;;;;;5.35;3.38;;;;;;;18.26;64.91;99645.81;4873339;29;20052;-69
2021/07/02 01:10:06;;;;;;;4.90;3.38;;;;;;;18.26;64.65;99645.81;4875213;29;20097;-68
2021/07/02 01:12:33;;;;;;;5.72;3.75;;;;;;;18.23;64.95;99648.81;4873856;29;20092;-70
2021/07/02 01:15:00;;;;;;;5.90;3.38;;;;;;;18.15;65.29;99650.53;4874102;29;20053;-70
2021/07/02 01:17:27;;;;;;;7.00;4.05;;;;;;;18.14;65.21;99646.19;4874608;29;20183;-71
2021/07/02 01:19:55;;;;;;;6.47;4.03;;;;;;;18.11;65.55;99643.03;4873986;29;20075;-70
2021/07/02 01:22:26;;;;;;;5.55;4.40;;;;;;;18.11;65.54;99645.69;4874351;29;20049;-69
2021/07/02 01:24:53;;;;;;;5.38;3.85;;;;;;;18.09;65.80;99640.53;4873845;29;20060;-68
2021/07/02 01:27:21;;;;;;;5.35;3.08;;;;;;;18.10;65.57;99641.38;4873878;29;20120;-68
2021/07/02 01:29:48;;;;;;;9.13;4.13;;;;;;;18.11;65.33;99643.88;4872352;29;20072;-71
2021/07/02 01:32:16;;;;;;;4.82;3.33;;;;;;;18.11;65.53;99641.22;4874348;29;20053;-69
2021/07/02 01:34:43;;;;;;;6.18;3.40;;;;;;;18.03;65.82;99630.53;4873591;29;20057;-69
2021/07/02 01:37:12;;;;;;;6.60;3.38;;;;;;;18.03;65.76;99629.72;4873914;29;20707;-69
2021/07/02 01:39:40;;;;;;;5.00;3.45;;;;;;;17.95;65.97;99634.09;4874092;29;20557;-69
2021/07/02 01:42:08;;;;;;;5.95;4.35;;;;;;;17.94;66.16;99621.72;4873149;29;20367;-70
2021/07/02 01:44:35;;;;;;;5.50;3.90;;;;;;;17.88;66.44;99626.94;4874633;29;20514;-69
2021/07/02 01:47:02;;;;;;;5.50;3.55;;;;;;;17.86;66.43;99623.59;4873810;29;20484;-71
2021/07/02 01:49:29;;;;;;;6.25;4.53;;;;;;;17.81;66.42;99620.59;4872872;29;20049;-70
2021/07/02 01:51:56;;;;;;;8.80;3.78;;;;;;;17.75;66.70;99624.78;4874219;29;20060;-71
2021/07/02 01:54:24;;;;;;;5.63;3.92;;;;;;;17.70;66.94;99632.47;4873192;29;20060;-69
2021/07/02 01:56:55;;;;;;;12.43;5.30;;;;;;;17.66;67.21;99637.34;4873290;29;20061;-73
2021/07/02 01:59:22;;;;;;;4.70;3.15;;;;;;;17.64;67.22;99628.66;4872148;29;20136;-69
2021/07/02 02:01:49;;;;;;;4.22;2.97;;;;;;;17.64;67.00;99628.66;4872618;29;20052;-67
2021/07/02 02:04:17;;;;;;;5.40;3.50;;;;;;;17.64;67.05;99626.00;4871982;29;20108;-71
2021/07/02 02:06:44;;;;;;;6.28;4.18;;;;;;;17.65;66.99;99622.34;4873662;29;20056;-68
2021/07/02 02:09:10;;;;;;;5.55;4.03;;;;;;;17.64;67.19;99627.84;4872420;29;20059;-70
2021/07/02 02:11:37;;;;;;;13.82;4.28;;;;;;;17.64;67.12;99631.34;4873536;29;20049;-69
2021/07/02 02:14:10;;;;;;;6.07;4.00;;;;;;;17.65;66.94;99625.00;4874363;29;20136;-74
2021/07/02 02:16:37;;;;;;;5.88;4.20;;;;;;;17.62;67.41;99627.19;4873205;29;20045;-74
2021/07/02 02:19:04;;;;;;;5.97;4.70;;;;;;;17.62;67.37;99633.34;4873213;29;20049;-69
2021/07/02 02:21:32;;;;;;;5.70;3.85;;;;;;;17.60;67.36;99639.88;4873907;29;20076;-69
2021/07/02 02:23:58;;;;;;;7.00;4.00;;;;;;;17.63;67.29;99644.84;4871913;29;20056;-73
2021/07/02 02:26:26;;;;;;;5.63;4.13;;;;;;;17.58;67.55;99648.88;4872992;29;20049;-69
2021/07/02 02:28:53;;;;;;;5.28;3.38;;;;;;;17.53;67.59;99647.72;4871054;29;20067;-70
2021/07/02 02:31:21;;;;;;;5.30;3.95;;;;;;;17.53;67.57;99642.41;4872422;29;20052;-69
2021/07/02 02:33:48;;;;;;;5.65;3.67;;;;;;;17.51;67.58;99645.22;4856166;29;20060;-70
2021/07/02 02:36:15;;;;;;;6.78;3.90;;;;;;;17.51;67.56;99650.56;4872991;29;20056;-69
2021/07/02 02:38:42;;;;;;;6.18;4.55;;;;;;;17.47;67.79;99651.94;4871628;29;20661;-69
2021/07/02 02:41:08;;;;;;;6.53;4.88;;;;;;;17.48;67.80;99655.41;4872367;29;20494;-72
2021/07/02 02:43:35;;;;;;;8.57;5.30;;;;;;;17.39;68.18;99650.13;4878118;29;20048;-70
2021/07/02 02:46:03;;;;;;;5.43;4.32;;;;;;;17.42;67.95;99642.75;4871874;29;20057;-68
2021/07/02 02:48:31;;;;;;;5.32;4.07;;;;;;;17.43;67.95;99644.41;4873021;29;20052;-69
2021/07/02 02:50:59;;;;;;;7.20;4.15;;;;;;;17.41;67.80;99643.75;4872902;29;20045;-68
2021/07/02 02:53:26;;;;;;;13.20;9.68;;;;;;;17.43;67.93;99645.28;4871783;29;20109;-72
2021/07/02 02:55:53;;;;;;;6.03;5.25;;;;;;;17.47;67.61;99640.44;4872803;29;20168;-69
2021/07/02 02:58:20;;;;;;;5.97;4.00;;;;;;;17.46;67.74;99644.09;4872452;29;20124;-71
2021/07/02 03:00:47;;;;;;;6.68;4.65;;;;;;;17.39;67.89;99641.25;4869729;29;20681;-70
2021/07/02 03:03:14;;;;;;;5.72;4.68;;;;;;;17.42;67.70;99648.09;4872434;29;20053;-70
2021/07/02 03:05:42;;;;;;;7.15;5.18;;;;;;;17.35;67.94;99635.41;4871556;29;20052;-69
2021/07/02 03:08:09;;;;;;;7.88;5.15;;;;;;;17.38;67.74;99639.59;4871379;29;20051;-71
2021/07/02 03:10:36;;;;;;;8.45;4.85;;;;;;;17.44;67.61;99643.44;4871566;29;20131;-69
2021/07/02 03:13:03;;;;;;;10.75;5.30;;;;;;;17.47;67.31;99635.91;4871638;29;20052;-69
2021/07/02 03:15:30;;;;;;;19.27;6.85;;;;;;;17.49;67.37;99633.91;4853972;29;20048;-68
2021/07/02 03:17:57;;;;;;;5.75;3.92;;;;;;;17.43;67.70;99629.25;4871972;29;20057;-69
2021/07/02 03:20:24;;;;;;;6.22;5.03;;;;;;;17.43;67.48;99634.59;4871214;29;20056;-67
2021/07/02 03:22:52;;;;;;;6.63;5.03;;;;;;;17.42;67.69;99638.25;4872352;29;20048;-67
2021/07/02 03:25:19;;;;;;;7.78;4.95;;;;;;;17.45;67.41;99637.06;4872875;29;20049;-70
2021/07/02 03:27:46;;;;;;;8.80;5.03;;;;;;;17.39;67.58;99649.25;4871488;29;20057;-70
2021/07/02 03:30:15;;;;;;;7.15;5.68;;;;;;;17.38;67.68;99639.59;4853225;29;20056;-69
2021/07/02 03:32:42;;;;;;;6.93;4.93;;;;;;;17.42;67.46;99650.78;4872593;29;20066;-72
2021/07/02 03:35:11;;;;;;;7.43;4.63;;;;;;;17.49;67.17;99651.75;4871533;29;20730;-67
2021/07/02 03:37:38;;;;;;;7.30;6.20;;;;;;;17.52;66.80;99656.75;4854512;29;20049;-69
2021/07/02 03:40:08;;;;;;;8.18;6.00;;;;;;;17.51;67.03;99657.75;4870906;29;20059;-70
2021/07/02 03:42:35;;;;;;;8.55;6.90;;;;;;;17.54;66.99;99660.09;4871181;29;20045;-69
2021/07/02 03:45:02;;;;;;;9.40;7.95;;;;;;;17.47;67.27;99667.13;4871004;29;20048;-69
2021/07/02 03:47:29;;;;;;;11.13;8.18;;;;;;;17.44;67.14;99667.44;4860352;29;20128;-70
2021/07/02 03:49:56;;;;;;;11.48;8.40;;;;;;;17.50;66.91;99666.75;4848756;29;20050;-69
2021/07/02 03:52:23;;;;;;;13.65;6.63;;;;;;;17.60;66.63;99664.75;4852404;29;20050;-69
2021/07/02 03:54:50;;;;;;;10.40;6.57;;;;;;;17.64;66.58;99665.22;4853270;29;20710;-69
2021/07/02 03:57:19;;;;;;;14.70;8.07;;;;;;;17.71;66.45;99669.69;4851748;29;20643;-73
2021/07/02 03:59:48;;;;;;;10.77;6.53;;;;;;;17.76;66.17;99667.34;4850373;29;20149;-71
2021/07/02 04:02:16;;;;;;;8.45;6.78;;;;;;;17.80;66.14;99667.84;4836140;29;20050;-68
2021/07/02 04:04:43;;;;;;;10.27;7.10;;;;;;;17.71;66.34;99663.53;4833685;29;20588;-69
2021/07/02 04:07:11;;;;;;;9.05;7.45;;;;;;;17.74;66.02;99653.34;4833502;29;20054;-68
2021/07/02 04:09:40;;;;;;;9.48;7.18;;;;;;;17.76;66.00;99655.84;4832425;29;20081;-70
2021/07/02 04:12:07;;;;;;;10.20;7.95;;;;;;;17.72;65.90;99660.69;4832727;29;20514;-71
2021/07/02 04:14:36;;;;;;;11.32;8.40;;;;;;;17.71;66.08;99653.69;4834060;29;20053;-68
2021/07/02 04:17:03;;;;;;;12.90;8.82;;;;;;;17.68;66.03;99667.41;4833079;29;20657;-67
2021/07/02 04:19:30;;;;;;;13.50;8.88;;;;;;;17.65;66.07;99665.06;4836300;29;20085;-67
2021/07/02 04:21:57;;;;;;;15.15;12.35;;;;;;;17.64;66.14;99662.56;4834167;29;20053;-66
2021/07/02 04:24:26;;;;;;;14.00;10.77;;;;;;;17.61;66.27;99658.41;4834356;29;20077;-74
2021/07/02 04:26:54;;;;;;;14.65;12.85;;;;;;;17.57;66.12;99654.38;4834803;29;20045;-70
2021/07/02 04:29:20;;;;;;;14.85;13.45;;;;;;;17.52;65.90;99649.59;4839003;29;20145;-71
2021/07/02 04:31:49;;;;;;;14.13;11.93;;;;;;;17.44;66.16;99651.44;4841007;29;20054;-75
2021/07/02 04:34:17;;;;;;;14.18;11.20;;;;;;;17.42;66.61;99654.28;4840676;29;20419;-70
2021/07/02 04:36:44;;;;;;;13.52;12.13;;;;;;;17.47;66.43;99651.09;4847450;29;20525;-67
2021/07/02 04:39:11;;;;;;;14.38;11.90;;;;;;;17.49;65.99;99665.09;4846132;29;20129;-70
2021/07/02 04:41:38;;;;;;;11.55;10.30;;;;;;;17.51;66.12;99668.44;4840678;29;20065;-73
2021/07/02 04:44:05;;;;;;;13.77;12.13;;;;;;;17.57;65.73;99665.94;4841245;29;20046;-70
2021/07/02 04:46:32;;;;;;;15.65;12.18;;;;;;;17.57;65.90;99671.25;4841091;29;20061;-69
2021/07/02 04:49:00;;;;;;;12.80;11.50;;;;;;;17.58;65.87;99669.41;4840960;29;20049;-72
2021/07/02 04:51:27;;;;;;;14.77;11.98;;;;;;;17.55;65.85;99667.91;4841017;29;20144;-72
2021/07/02 04:53:54;;;;;;;13.20;11.45;;;;;;;17.53;66.11;99669.09;4853192;29;20050;-69
2021/07/02 04:56:21;;;;;;;12.05;10.70;;;;;;;17.53;65.91;99664.59;4845278;29;20057;-74
2021/07/02 04:58:54;;;;;;;12.35;10.77;;;;;;;17.60;66.00;99664.75;4839571;29;20487;-76
2021/07/02 05:01:21;;;;;;;14.55;11.70;;;;;;;17.65;65.59;99664.25;4840642;29;20058;-73
2021/07/02 05:03:50;;;;;;;13.43;11.43;;;;;;;17.60;66.02;99678.09;4841232;29;20049;-72
2021/07/02 05:06:19;;;;;;;12.57;10.45;;;;;;;17.62;65.93;99672.59;4840231;29;20057;-69
2021/07/02 05:08:47;;;;;;;11.27;8.90;;;;;;;17.73;65.70;99681.03;4840011;29;20590;-86
2021/07/02 05:11:14;;;;;;;11.73;10.40;;;;;;;17.89;65.41;99676.69;4826784;29;20064;-76
2021/07/02 05:13:41;;;;;;;13.27;9.32;;;;;;;17.95;64.98;99686.69;4841615;29;20049;-72
2021/07/02 05:16:10;;;;;;;11.85;9.90;;;;;;;17.99;64.62;99679.16;4844124;29;20054;-70
2021/07/02 05:18:37;;;;;;;13.13;11.65;;;;;;;18.04;64.50;99685.66;4842069;29;20102;-66
2021/07/02 05:21:04;;;;;;;10.95;9.85;;;;;;;18.08;64.25;99681.63;4845991;29;20050;-74
2021/07/02 05:23:32;;;;;;;11.50;9.23;;;;;;;18.18;64.11;99683.25;4842150;29;20141;-77
2021/07/02 05:26:00;;;;;;;9.55;7.97;;;;;;;18.41;63.62;99691.31;4841584;29;20069;-68
2021/07/02 05:28:28;;;;;;;10.35;8.32;;;;;;;18.48;63.30;99692.28;4840906;29;20065;-71
2021/07/02 05:30:55;;;;;;;9.43;7.63;;;;;;;18.72;62.65;99688.59;4837969;29;20081;-72
2021/07/02 05:33:22;;;;;;;11.18;10.10;;;;;;;18.71;62.18;99686.97;4839645;29;20053;-69
2021/07/02 05:35:49;;;;;;;10.80;8.88;;;;;;;18.68;62.30;99690.81;4838847;29;20491;-69
2021/07/02 05:38:16;;;;;;;9.25;7.55;;;;;;;18.90;62.13;99683.81;4839812;29;20049;-71
2021/07/02 05:40:45;;;;;;;12.38;10.68;;;;;;;18.90;61.73;99686.50;4836123;29;20058;-73
2021/07/02 05:43:12;;;;;;;12.63;11.13;;;;;;;18.75;61.98;99693.63;4836945;29;20052;-72
2021/07/02 05:45:40;;;;;;;11.68;10.48;;;;;;;18.78;61.91;99687.06;4836982;29;20153;-71
2021/07/02 05:48:07;;;;;;;13.88;12.50;;;;;;;18.71;61.87;99697.66;4836687;29;20050;-71
2021/07/02 05:50:34;;;;;;;14.88;13.38;;;;;;;18.66;62.20;99695.50;4836742;29;20132;-71
2021/07/02 05:53:01;;;;;;;15.02;12.68;;;;;;;18.72;62.08;99693.97;4836292;29;20050;-71
2021/07/02 05:55:29;;;;;;;16.38;14.77;;;;;;;18.78;61.73;99687.91;4834733;29;20049;-71
2021/07/02 05:57:57;;;;;;;15.13;12.63;;;;;;;18.88;61.24;99696.53;4835741;29;20046;-70
2021/07/02 06:00:24;;;;;;;15.13;13.18;;;;;;;18.86;61.13;99695.06;4834605;29;20057;-67
2021/07/02 06:02:51;;;;;;;14.48;12.88;;;;;;;18.84;61.52;99707.81;4836015;29;20060;-71
2021/07/02 06:05:18;;;;;;;13.18;11.55;;;;;;;19.07;61.38;99695.25;4836251;29;20054;-70
2021/07/02 06:07:46;;;;;;;14.32;12.82;;;;;;;19.21;60.76;99698.13;4835880;29;20057;-69
2021/07/02 06:10:15;;;;;;;16.60;14.35;;;;;;;19.32;60.44;99707.56;4834237;29;20648;-73
2021/07/02 06:12:42;;;;;;;17.05;14.98;;;;;;;19.41;60.26;99707.31;4835458;29;20054;-69
2021/07/02 06:15:13;;;;;;;18.63;16.65;;;;;;;19.39;60.28;99705.81;4834735;29;20514;-69
2021/07/02 06:17:40;;;;;;;16.63;14.93;;;;;;;19.29;60.43;99706.09;4833415;29;20054;-72
2021/07/02 06:20:08;;;;;;;16.98;12.55;;;;;;;19.41;60.75;99707.31;4833332;29;20663;-70
2021/07/02 06:22:35;;;;;;;17.35;15.65;;;;;;;19.56;59.63;99707.34;4833598;29;20137;-70
2021/07/02 06:25:03;;;;;;;20.40;18.60;;;;;;;19.34;60.10;99697.50;4835716;29;20076;-69
2021/07/02 06:27:29;;;;;;;16.40;14.73;;;;;;;19.25;60.80;99696.78;4833878;29;20050;-69
2021/07/02 06:29:56;;;;;;;18.83;16.98;;;;;;;19.31;60.21;99706.75;4831494;29;20054;-71
2021/07/02 06:32:25;;;;;;;17.30;15.27;;;;;;;19.28;60.51;99713.31;4833080;29;20046;-69
2021/07/02 06:34:52;;;;;;;17.52;15.65;;;;;;;19.36;60.33;99714.25;4832371;29;20057;-69
2021/07/02 06:37:19;;;;;;;17.33;15.05;;;;;;;19.27;60.78;99721.50;4832193;29;20049;-69
2021/07/02 06:39:45;;;;;;;17.48;15.57;;;;;;;19.20;61.02;99713.38;4831598;29;20203;-70
2021/07/02 06:42:13;;;;;;;20.27;18.15;;;;;;;19.22;61.02;99710.50;4833002;29;20050;-69
2021/07/02 06:44:39;;;;;;;19.23;17.25;;;;;;;19.16;61.06;99714.75;4833363;29;20056;-70
2021/07/02 06:47:06;;;;;;;20.20;18.05;;;;;;;19.27;60.89;99710.81;4833867;29;20050;-72
2021/07/02 06:49:38;;;;;;;21.52;18.50;;;;;;;19.42;60.40;99705.47;4832978;29;20054;-73
2021/07/02 06:52:06;;;;;;;20.88;14.43;;;;;;;19.58;60.28;99709.84;4834089;29;20107;-73
2021/07/02 06:54:33;;;;;;;17.95;14.90;;;;;;;20.04;59.30;99715.03;4802145;29;20058;-72
2021/07/02 06:57:03;;;;;;;17.50;13.98;;;;;;;20.29;58.48;99712.06;4834255;29;20057;-71
2021/07/02 06:59:32;;;;;;;15.13;13.13;;;;;;;20.42;58.25;99707.69;4797999;29;20154;-72
2021/07/02 07:01:59;;;;;;;19.77;15.63;;;;;;;20.23;58.08;99709.09;4832260;29;20050;-71
2021/07/02 07:04:28;;;;;;;15.57;14.07;;;;;;;19.90;59.21;99700.66;4833006;29;20053;-72
2021/07/02 07:06:57;;;;;;;15.90;14.30;;;;;;;19.82;59.41;99693.50;4834331;29;20054;-71
2021/07/02 07:09:24;;;;;;;15.48;13.90;;;;;;;19.86;59.44;99691.28;4841598;29;20513;-73
2021/07/02 07:11:51;;;;;;;15.48;13.88;;;;;;;19.81;59.66;99691.03;4871774;29;20055;-73
2021/07/02 07:14:18;;;;;;;15.57;13.95;;;;;;;19.82;59.08;99688.16;4836933;29;20249;-73
2021/07/02 07:16:47;;;;;;;16.77;14.25;;;;;;;19.95;58.79;99692.03;4860867;29;20057;-74
2021/07/02 07:19:14;;;;;;;16.48;14.80;;;;;;;20.14;58.27;99686.09;4851962;29;20709;-74
2021/07/02 07:21:40;;;;;;;16.00;14.13;;;;;;;20.16;58.12;99685.91;4850513;29;20056;-71
2021/07/02 07:24:09;;;;;;;15.75;14.13;;;;;;;20.07;58.72;99682.50;4850330;29;20056;-72
2021/07/02 07:26:36;;;;;;;14.18;12.63;;;;;;;20.17;58.55;99680.38;4846969;29;20053;-73
2021/07/02 07:29:06;;;;;;;14.40;12.80;;;;;;;20.36;58.38;99670.06;4853341;29;20057;-71
2021/07/02 07:31:33;;;;;;;17.40;14.40;;;;;;;20.31;58.48;99662.59;4851226;29;20432;-73
2021/07/02 07:34:01;;;;;;;16.35;14.60;;;;;;;20.32;57.80;99666.09;4850927;29;20057;-71
2021/07/02 07:36:29;;;;;;;14.18;12.75;;;;;;;20.26;58.00;99665.00;4851653;29;20050;-69
2021/07/02 07:38:56;;;;;;;16.10;14.40;;;;;;;20.21;58.56;99668.25;4851384;29;20050;-73
2021/07/02 07:41:25;;;;;;;15.15;13.65;;;;;;;20.13;58.52;99665.69;4851261;29;20388;-72
2021/07/02 07:43:52;;;;;;;13.85;12.23;;;;;;;20.14;58.63;99683.41;4859849;29;20053;-72
2021/07/02 07:46:20;;;;;;;14.90;13.40;;;;;;;20.16;58.58;99675.19;4853352;29;20058;-71
2021/07/02 07:48:47;;;;;;;16.10;14.48;;;;;;;20.09;58.78;99679.63;4850567;29;20502;-72
2021/07/02 07:51:29;;;;;;;18.15;16.23;;;;;;;20.01;59.00;99677.91;4850706;29;20072;-72
2021/07/02 07:53:57;;;;;;;17.40;14.07;;;;;;;20.00;59.27;99677.03;4849773;29;20055;-70
2021/07/02 07:56:26;;;;;;;17.02;15.32;;;;;;;20.12;58.60;99671.22;4850169;29;20486;-71
2021/07/02 07:58:53;;;;;;;16.00;14.32;;;;;;;20.15;58.63;99674.38;4848016;29;20050;-71
2021/07/02 08:01:22;;;;;;;35.13;15.63;;;;;;;20.41;58.31;99673.81;4851188;29;20734;-72
2021/07/02 08:03:50;;;;;;;24.45;21.92;;;;;;;20.68;57.40;99684.88;4849790;29;20049;-73
2021/07/02 08:06:17;;;;;;;18.90;15.10;;;;;;;20.53;57.40;99682.22;4851272;29;20084;-72
2021/07/02 08:08:45;;;;;;;15.38;13.77;;;;;;;20.61;57.60;99686.66;4849008;29;20053;-72
2021/07/02 08:11:12;;;;;;;17.58;15.77;;;;;;;20.64;56.98;99674.72;4850971;29;20446;-72
2021/07/02 08:13:41;;;;;;;14.57;11.93;;;;;;;20.39;57.11;99675.03;4858113;29;20049;-73
2021/07/02 08:16:08;;;;;;;15.18;13.68;;;;;;;20.25;58.10;99672.19;4854767;29;20160;-71
2021/07/02 08:18:34;;;;;;;18.13;15.32;;;;;;;20.22;58.30;99677.09;4851596;29;20053;-72
2021/07/02 08:21:02;;;;;;;15.95;14.32;;;;;;;20.29;57.54;99678.00;4851864;29;20049;-73
2021/07/02 08:23:29;;;;;;;19.50;17.02;;;;;;;20.34;57.41;99672.91;4849664;29;20049;-72
2021/07/02 08:25:57;;;;;;;20.83;16.90;;;;;;;20.20;58.01;99682.69;4855578;29;20653;-72
2021/07/02 08:31:12;;;;;;;20.02;16.77;;;;;;;20.46;57.31;99686.69;4859583;29;20670;-71
2021/07/02 08:33:39;;;;;;;15.32;13.15;;;;;;;20.39;57.64;99689.28;4859148;29;20086;-73
2021/07/02 08:36:06;;;;;;;15.50;13.88;;;;;;;20.40;58.10;99693.63;4856254;29;20145;-70
2021/07/02 08:38:33;;;;;;;16.20;13.88;;;;;;;20.37;58.17;99698.53;4852597;29;20049;-72
2021/07/02 08:41:00;;;;;;;13.93;10.85;;;;;;;20.53;57.90;99705.53;4818208;29;20716;-69
2021/07/02 08:43:27;;;;;;;14.80;13.02;;;;;;;20.75;57.12;99706.41;4849238;29;20106;-68
2021/07/02 08:45:54;;;;;;;16.00;14.30;;;;;;;20.65;57.38;99711.25;4854652;29;20050;-70
2021/07/02 08:48:24;;;;;;;18.73;15.20;;;;;;;20.56;57.76;99697.94;4857830;29;20081;-70
2021/07/02 08:50:54;;;;;;;20.30;16.15;;;;;;;20.34;58.31;99713.16;4849640;29;20481;-71
2021/07/02 08:53:21;;;;;;;16.75;14.48;;;;;;;20.21;58.54;99713.00;4849504;29;20060;-70
2021/07/02 08:55:49;;;;;;;20.27;17.10;;;;;;;20.22;58.68;99715.50;4851776;29;20128;-71
2021/07/02 08:58:16;;;;;;;20.42;17.55;;;;;;;20.27;58.78;99714.91;4849268;29;20429;-71
2021/07/02 09:00:43;;;;;;;20.67;16.80;;;;;;;20.32;58.44;99717.06;4848067;29;20057;-69
2021/07/02 09:03:29;;;;;;;19.88;17.73;;;;;;;20.55;58.06;99714.22;4850187;29;20045;-70
2021/07/02 09:05:57;;;;;;;21.40;19.10;;;;;;;20.49;58.10;99725.69;4847956;29;20049;-70
2021/07/02 09:08:24;;;;;;;19.05;15.50;;;;;;;20.38;58.02;99727.88;4849627;29;20486;-69
2021/07/02 09:10:51;;;;;;;20.02;13.43;;;;;;;20.84;57.29;99736.66;4848560;29;20732;-70
2021/07/02 09:13:18;;;;;;;20.08;16.65;;;;;;;21.26;56.31;99737.66;4848283;29;20136;-69
2021/07/02 09:15:48;;;;;;;22.13;18.55;;;;;;;21.32;55.79;99731.50;4851611;29;20047;-72
2021/07/02 09:18:16;;;;;;;21.23;14.85;;;;;;;21.47;55.97;99740.34;4853445;29;20121;-73
2021/07/02 09:20:45;;;;;;;18.77;16.00;;;;;;;21.87;54.85;99734.41;4856841;29;20061;-71
2021/07/02 09:23:14;;;;;;;19.50;16.17;;;;;;;21.66;54.32;99735.31;4853934;29;20064;-68
2021/07/02 09:25:46;;;;;;;17.27;14.98;;;;;;;21.40;55.26;99736.75;4851456;29;20049;-70
2021/07/02 09:28:16;;;;;;;17.27;14.38;;;;;;;21.35;55.55;99728.44;4850509;29;20436;-69
2021/07/02 09:30:45;;;;;;;19.00;13.05;;;;;;;21.30;55.86;99720.97;4833866;29;20173;-68
2021/07/02 09:33:13;;;;;;;17.80;14.05;;;;;;;21.29;55.96;99723.84;4849465;29;20061;-67
2021/07/02 09:35:47;;;;;;;19.15;13.50;;;;;;;21.34;55.64;99711.50;4850650;29;20049;-71
2021/07/02 09:38:15;;;;;;;18.20;13.40;;;;;;;21.44;55.35;99711.13;4850746;29;20060;-69
2021/07/02 09:40:44;;;;;;;17.90;13.05;;;;;;;21.74;55.33;99713.66;4850316;29;20152;-69
2021/07/02 09:43:13;;;;;;;16.83;14.20;;;;;;;21.80;53.90;99712.03;4850416;29;20045;-69
2021/07/02 09:45:45;;;;;;;17.75;12.32;;;;;;;21.70;54.91;99715.09;4849214;29;20060;-70
2021/07/02 09:48:17;;;;;;;16.40;14.07;;;;;;;21.65;54.94;99715.66;4850242;29;20608;-70
2021/07/02 09:50:47;;;;;;;16.45;14.00;;;;;;;21.52;55.10;99702.97;4855967;29;20053;-71
2021/07/02 09:53:18;;;;;;;19.40;16.63;;;;;;;21.29;55.76;99708.56;4834652;29;20069;-73
2021/07/02 09:55:47;;;;;;;18.08;14.52;;;;;;;21.19;56.46;99718.78;4839679;29;20688;-71
2021/07/02 09:58:16;;;;;;;15.13;12.15;;;;;;;21.25;56.41;99719.88;4837822;29;20049;-71
2021/07/02 10:00:46;;;;;;;14.27;10.98;;;;;;;21.69;55.82;99714.25;4841619;29;20046;-69
2021/07/02 10:03:14;;;;;;;16.95;12.43;;;;;;;22.13;54.17;99710.34;4852258;29;20053;-72
2021/07/02 10:05:47;;;;;;;15.05;13.45;;;;;;;22.15;54.32;99710.16;4849795;29;20108;-71
2021/07/02 10:08:15;;;;;;;15.27;13.07;;;;;;;22.16;54.52;99719.88;4849580;29;20072;-71
2021/07/02 10:10:42;;;;;;;15.55;13.23;;;;;;;22.13;54.14;99712.22;4849882;29;20068;-71
2021/07/02 10:13:09;;;;;;;16.67;13.25;;;;;;;21.95;54.25;99710.88;4835211;29;20042;-70
2021/07/02 10:15:36;;;;;;;15.65;12.95;;;;;;;21.96;54.55;99715.22;4833780;29;20496;-71
2021/07/02 10:18:04;;;;;;;17.95;13.13;;;;;;;22.01;54.42;99721.88;4832668;29;20054;-72
2021/07/02 10:20:33;;;;;;;15.15;11.68;;;;;;;22.24;54.08;99726.97;4834659;29;20046;-68
2021/07/02 10:23:02;;;;;;;18.08;10.75;;;;;;;22.58;53.37;99722.53;4839727;29;20045;-69
2021/07/02 10:25:31;;;;;;;16.70;14.82;;;;;;;22.20;53.83;99725.69;4842041;29;20068;-69
2021/07/02 10:27:58;;;;;;;18.38;14.18;;;;;;;21.84;54.46;99722.22;4839685;29;20612;-70
2021/07/02 10:30:26;;;;;;;14.60;12.27;;;;;;;21.76;54.96;99727.72;4838254;29;20050;-70
2021/07/02 10:32:57;;;;;;;14.80;12.93;;;;;;;21.75;55.31;99720.69;4841823;29;20049;-71
2021/07/02 10:35:25;;;;;;;17.75;12.90;;;;;;;21.67;55.67;99721.66;4848346;29;20102;-69
2021/07/02 10:37:57;;;;;;;15.80;13.45;;;;;;;21.61;55.75;99724.31;4849783;29;20058;-69
2021/07/02 10:40:40;;;;;;;13.40;11.85;;;;;;;21.90;55.27;99725.97;4844716;29;20061;-69
2021/07/02 10:43:21;;;;;;;14.68;12.25;;;;;;;22.03;55.21;99727.88;4849128;29;20077;-69
2021/07/02 10:46:11;;;;;;;18.00;14.68;;;;;;;21.85;55.58;99728.41;4848508;29;20055;-70
2021/07/02 10:48:52;;;;;;;16.98;13.30;;;;;;;21.60;56.28;99730.72;4834714;29;20046;-69
2021/07/02 10:51:39;;;;;;;20.20;13.15;;;;;;;21.63;56.66;99735.72;4831245;29;20056;-69
2021/07/02 10:54:33;;;;;;;20.85;16.67;;;;;;;21.57;56.81;99730.09;4831470;29;20482;-69
2021/07/02 10:57:07;;;;;;;20.45;17.60;;;;;;;21.55;56.79;99732.16;4830093;29;20050;-68
2021/07/02 11:00:03;;;;;;;15.27;13.48;;;;;;;21.88;56.29;99734.22;4829518;29;20089;-69
2021/07/02 11:02:30;;;;;;;18.13;16.02;;;;;;;22.32;55.09;99730.31;4829576;29;20046;-68
2021/07/02 11:05:00;;;;;;;18.48;15.52;;;;;;;22.18;55.22;99733.94;4813534;29;20050;-68
2021/07/02 11:07:49;;;;;;;29.38;23.60;;;;;;;21.70;56.46;99736.59;4814915;29;20254;-69
2021/07/02 11:10:16;;;;;;;29.33;25.60;;;;;;;21.51;57.23;99740.78;4830210;29;20078;-68
2021/07/02 11:13:02;;;;;;;30.05;25.55;;;;;;;21.43;57.51;99741.72;4830116;29;20068;-71
2021/07/02 11:15:29;;;;;;;32.20;28.83;;;;;;;21.60;56.64;99733.41;4833231;29;20114;-68
2021/07/02 11:18:18;;;;;;;31.98;28.27;;;;;;;21.83;56.23;99725.91;4867498;29;20490;-68
2021/07/02 11:20:47;;;;;;;30.17;27.05;;;;;;;21.96;55.82;99731.34;4868894;29;20376;-68
2021/07/02 11:23:22;;;;;;;29.15;26.10;;;;;;;21.91;56.43;99732.97;4857347;29;20136;-69
2021/07/02 11:26:02;;;;;;;30.92;27.92;;;;;;;21.80;56.18;99720.09;4848251;29;20058;-70
2021/07/02 11:28:48;;;;;;;28.05;25.10;;;;;;;21.91;55.97;99717.69;4848857;29;20129;-69
2021/07/02 11:31:17;;;;;;;29.88;26.70;;;;;;;22.19;55.63;99726.72;4845536;29;20049;-68
2021/07/02 11:33:45;;;;;;;29.65;25.55;;;;;;;22.38;55.18;99731.38;4848122;29;20502;-67